Time;durP1;ratioP1;P1;durP2;ratioP2;P2;SDS_P1;SDS_P2;PMS_P1;PMS_P2;Temp;Humidity;BMP_temperature;BMP_pressure;BME280_temperature;BME280_humidity;BME280_pressure;Samples;Min_cycle;Max_cycle;Signal;HPM_P1;HPM_P2
2022/12/14 00:01:17;;;;;;;24.85;15.18;;;;;;;2.59;52.63;100415.81;5093589;28;20032;-69
2022/12/14 00:03:45;;;;;;;22.10;14.35;;;;;;;2.60;52.78;100416.69;5092574;28;20376;-69
2022/12/14 00:06:17;;;;;;;21.85;12.82;;;;;;;2.60;52.78;100414.03;5093801;28;20093;-69
2022/12/14 00:08:45;;;;;;;21.67;14.30;;;;;;;2.59;52.53;100413.16;5093525;28;20048;-69
2022/12/14 00:11:15;;;;;;;20.33;13.15;;;;;;;2.59;52.68;100414.97;5094494;28;20127;-69
2022/12/14 00:13:42;;;;;;;23.02;14.50;;;;;;;2.60;52.73;100416.69;5093374;28;20032;-69
2022/12/14 00:16:16;;;;;;;20.02;13.02;;;;;;;2.61;52.78;100418.41;5094263;28;20071;-68
2022/12/14 00:18:47;;;;;;;19.05;12.38;;;;;;;2.63;52.60;100401.50;5093908;28;20089;-69
2022/12/14 00:21:14;;;;;;;19.08;13.25;;;;;;;2.65;52.61;100393.47;5074851;28;20055;-69
2022/12/14 00:23:44;;;;;;;22.08;13.25;;;;;;;2.65;52.60;100388.16;5081342;28;20123;-69
2022/12/14 00:26:43;;;;;;;21.73;13.30;;;;;;;2.64;52.59;100386.44;5092392;28;20036;-69
2022/12/14 00:29:10;;;;;;;22.05;12.95;;;;;;;2.62;52.65;100383.88;5079545;28;20047;-69
2022/12/14 00:31:37;;;;;;;25.48;13.05;;;;;;;2.60;52.62;100384.88;5093647;28;20044;-69
2022/12/14 00:34:03;;;;;;;20.05;12.88;;;;;;;2.57;52.58;100399.13;5094001;28;20076;-69
2022/12/14 00:36:30;;;;;;;22.13;14.00;;;;;;;2.53;52.58;100392.25;5093038;28;20046;-69
2022/12/14 00:38:57;;;;;;;26.15;13.77;;;;;;;2.50;52.44;100387.94;5092054;28;20051;-69
2022/12/14 00:41:23;;;;;;;22.48;13.63;;;;;;;2.49;52.56;100390.66;5093913;28;20048;-69
2022/12/14 00:43:50;;;;;;;23.02;13.43;;;;;;;2.46;52.65;100386.34;5091669;28;20489;-69
2022/12/14 00:46:17;;;;;;;21.15;12.25;;;;;;;2.46;52.55;100391.66;5083023;28;20055;-69
2022/12/14 00:48:44;;;;;;;20.45;12.68;;;;;;;2.48;52.58;100395.09;5092148;28;20032;-69
2022/12/14 00:51:13;;;;;;;24.00;14.73;;;;;;;2.48;52.65;100375.69;5092808;28;20405;-70
2022/12/14 00:53:40;;;;;;;22.20;13.20;;;;;;;2.48;52.54;100379.19;5080082;28;20044;-69
2022/12/14 00:56:07;;;;;;;20.77;12.93;;;;;;;2.48;52.64;100363.28;5073744;28;20044;-69
2022/12/14 00:58:34;;;;;;;19.92;12.75;;;;;;;2.47;52.49;100366.88;5087016;28;20044;-70
2022/12/14 01:01:04;;;;;;;19.08;12.70;;;;;;;2.45;52.51;100357.28;5092629;28;20044;-69
2022/12/14 01:03:32;;;;;;;21.67;13.68;;;;;;;2.43;52.45;100354.69;5093547;28;20055;-70
2022/12/14 01:05:59;;;;;;;23.10;13.48;;;;;;;2.41;52.27;100351.25;5093515;28;20079;-69
2022/12/14 01:08:33;;;;;;;18.30;12.45;;;;;;;2.39;52.54;100349.59;5092767;28;20040;-69
2022/12/14 01:11:08;;;;;;;20.40;12.83;;;;;;;2.36;52.41;100347.09;5092655;28;20083;-69
2022/12/14 01:13:36;;;;;;;21.05;13.45;;;;;;;2.32;52.48;100334.91;5087777;28;20071;-69
2022/12/14 01:16:08;;;;;;;19.48;12.18;;;;;;;2.30;52.38;100331.47;5093248;28;20490;-69
2022/12/14 01:18:36;;;;;;;18.65;11.82;;;;;;;2.29;52.56;100325.31;5092034;28;20483;-68
2022/12/14 01:21:18;;;;;;;18.73;12.20;;;;;;;2.27;52.41;100321.00;5091294;28;20432;-70
2022/12/14 01:23:46;;;;;;;20.92;13.20;;;;;;;2.26;52.44;100328.09;5079132;28;20052;-70
2022/12/14 01:26:15;;;;;;;17.70;11.73;;;;;;;2.26;52.46;100327.25;5090539;28;20040;-69
2022/12/14 01:28:42;;;;;;;19.88;12.30;;;;;;;2.26;52.41;100324.59;5089775;28;20397;-69
2022/12/14 01:31:13;;;;;;;20.75;11.80;;;;;;;2.25;52.23;100318.44;5090937;28;20051;-69
2022/12/14 01:33:40;;;;;;;23.13;12.00;;;;;;;2.26;52.48;100325.44;5092254;28;20036;-69
2022/12/14 01:36:09;;;;;;;18.70;12.10;;;;;;;2.23;52.45;100318.50;5092044;28;20055;-69
2022/12/14 01:38:36;;;;;;;19.38;11.55;;;;;;;2.23;52.63;100312.34;5092070;28;20048;-69
2022/12/14 01:41:03;;;;;;;21.85;12.40;;;;;;;2.22;52.45;100307.94;5091541;28;20047;-69
2022/12/14 01:43:49;;;;;;;19.00;12.02;;;;;;;2.20;52.40;100301.84;5092160;28;20044;-69
2022/12/14 01:46:37;;;;;;;18.88;11.63;;;;;;;2.18;52.44;100301.91;5091815;28;20093;-69
2022/12/14 01:49:12;;;;;;;18.88;11.32;;;;;;;2.16;52.50;100314.38;5087181;28;20048;-69
2022/12/14 01:51:42;;;;;;;;;;;;;;;2.14;52.43;100316.22;5092300;28;20428;-69
2022/12/14 01:54:12;;;;;;;18.50;11.73;;;;;;;2.17;52.34;100309.94;5092309;28;19924;-69
2022/12/14 01:56:41;;;;;;;16.77;11.27;;;;;;;2.17;52.55;100313.44;5091427;28;20046;-69
2022/12/14 01:59:17;;;;;;;19.00;11.13;;;;;;;2.17;52.53;100312.59;5091223;28;20052;-69
2022/12/14 02:01:45;;;;;;;18.70;11.87;;;;;;;2.17;52.48;100315.25;5091211;28;20097;-68
2022/12/14 02:04:15;;;;;;;17.90;11.10;;;;;;;2.16;52.41;100314.38;5108523;28;20298;-69
2022/12/14 02:06:44;;;;;;;17.60;10.85;;;;;;;2.15;52.50;100307.34;5092710;28;20052;-70
2022/12/14 02:09:16;;;;;;;16.10;11.45;;;;;;;2.14;52.51;100300.34;5083838;28;20437;-68
2022/12/14 02:12:09;;;;;;;17.27;10.70;;;;;;;2.15;52.40;100307.34;5091660;28;20046;-69
2022/12/14 02:14:36;;;;;;;17.40;10.57;;;;;;;2.16;52.26;100302.91;5069738;28;20052;-69
2022/12/14 02:17:03;;;;;;;17.52;10.80;;;;;;;2.15;52.32;100294.13;5072475;28;20449;-69
2022/12/14 02:19:29;;;;;;;16.70;10.77;;;;;;;2.15;52.41;100293.25;5075484;28;20129;-68
2022/12/14 02:22:23;;;;;;;16.17;10.55;;;;;;;2.13;52.44;100289.81;5090966;28;20113;-69
2022/12/14 02:25:08;;;;;;;18.13;11.55;;;;;;;2.12;52.20;100283.66;5074819;28;20379;-69
2022/12/14 02:28:02;;;;;;;17.27;10.70;;;;;;;2.09;52.27;100286.44;5088089;28;20048;-69
2022/12/14 02:30:34;;;;;;;19.70;10.82;;;;;;;2.10;52.18;100284.66;5090467;28;20055;-69
2022/12/14 02:33:29;;;;;;;18.10;10.57;;;;;;;2.10;52.32;100289.97;5094414;28;20047;-69
2022/12/14 02:36:03;;;;;;;15.60;11.15;;;;;;;2.12;52.17;100285.44;5094772;28;20056;-68
2022/12/14 02:38:43;;;;;;;17.02;10.40;;;;;;;2.11;52.28;100268.69;5094685;28;20040;-69
2022/12/14 02:41:15;;;;;;;20.02;10.68;;;;;;;2.13;52.29;100265.97;5092651;28;20036;-69
2022/12/14 02:43:52;;;;;;;16.17;10.57;;;;;;;2.13;52.22;100266.84;5095204;28;20089;-69
2022/12/14 02:46:31;;;;;;;18.55;10.73;;;;;;;2.14;52.25;100262.41;5095507;28;20501;-69
2022/12/14 02:49:09;;;;;;;17.73;10.00;;;;;;;2.13;52.09;100268.63;5075619;28;20044;-69
2022/12/14 02:51:56;;;;;;;19.65;11.50;;;;;;;2.12;52.26;100265.13;5095148;28;20048;-70
2022/12/14 02:54:52;;;;;;;18.40;10.50;;;;;;;2.13;52.29;100269.47;5066423;28;20098;-69
2022/12/14 02:57:25;;;;;;;17.23;10.35;;;;;;;2.13;52.25;100269.47;5081825;28;20044;-70
2022/12/14 02:59:55;;;;;;;15.82;10.32;;;;;;;2.12;52.23;100264.25;5089706;28;20040;-69
2022/12/14 03:02:24;;;;;;;17.38;10.77;;;;;;;2.10;52.28;100269.63;5093029;28;20383;-69
2022/12/14 03:04:50;;;;;;;17.90;10.75;;;;;;;2.09;52.24;100275.84;5094725;28;20044;-70
2022/12/14 03:07:32;;;;;;;17.02;11.32;;;;;;;2.09;52.26;100270.56;5095951;28;20494;-70
2022/12/14 03:10:31;;;;;;;16.90;10.70;;;;;;;2.07;52.20;100272.41;5089240;28;20040;-69
2022/12/14 03:13:14;;;;;;;17.02;10.82;;;;;;;2.10;52.30;100268.75;5063134;28;20142;-70
2022/12/14 03:15:44;;;;;;;19.25;10.63;;;;;;;2.10;52.23;100251.09;5083265;28;20043;-69
2022/12/14 03:18:14;;;;;;;17.10;10.70;;;;;;;2.10;52.22;100269.63;5088816;28;20044;-69
2022/12/14 03:20:44;;;;;;;16.08;10.65;;;;;;;2.09;52.15;100252.00;5092688;28;20048;-69
2022/12/14 03:23:15;;;;;;;17.30;10.60;;;;;;;2.10;52.13;100253.72;5097077;28;20036;-69
2022/12/14 03:25:49;;;;;;;15.98;10.35;;;;;;;2.10;52.18;100260.81;5086522;28;20040;-69
2022/12/14 03:28:22;;;;;;;19.05;11.57;;;;;;;2.09;52.10;100245.84;5089572;28;20032;-69
2022/12/14 03:30:59;;;;;;;14.50;10.77;;;;;;;2.07;52.24;100251.22;5074396;28;20052;-69
2022/12/14 03:33:30;;;;;;;18.45;10.85;;;;;;;2.07;52.14;100256.53;5074546;28;20455;-70
2022/12/14 03:36:05;;;;;;;15.85;10.13;;;;;;;2.07;52.29;100259.16;5074926;28;20044;-69
2022/12/14 03:38:40;;;;;;;16.98;10.70;;;;;;;2.08;52.23;100258.25;5078931;28;20048;-70
2022/12/14 03:41:28;;;;;;;17.08;10.63;;;;;;;2.09;52.40;100253.81;5094732;28;20032;-69
2022/12/14 03:44:28;;;;;;;17.60;10.85;;;;;;;2.09;52.35;100249.38;5085442;28;20048;-69
2022/12/14 03:47:02;;;;;;;17.70;11.18;;;;;;;2.08;52.23;100238.84;5094494;28;20048;-69
2022/12/14 03:49:35;;;;;;;17.73;11.47;;;;;;;2.07;52.38;100237.97;5084890;28;20048;-69
2022/12/14 03:52:34;;;;;;;16.15;10.52;;;;;;;2.06;52.43;100235.41;5074376;28;20623;-70
2022/12/14 03:55:09;;;;;;;17.70;11.10;;;;;;;2.06;52.26;100232.75;5075651;28;20046;-68
2022/12/14 03:57:52;;;;;;;17.48;11.32;;;;;;;2.06;52.41;100222.16;5095005;28;20379;-69
2022/12/14 04:00:22;;;;;;;18.27;10.73;;;;;;;2.04;52.48;100219.59;5080195;28;20036;-68
2022/12/14 04:03:20;;;;;;;17.25;10.48;;;;;;;2.05;52.32;100228.38;5093472;28;20513;-69
2022/12/14 04:06:04;;;;;;;18.75;10.65;;;;;;;2.07;52.32;100213.28;5080725;28;20063;-70
2022/12/14 04:08:46;;;;;;;17.90;11.10;;;;;;;2.07;52.20;100216.78;5094413;28;20044;-68
2022/12/14 04:20:11;;;;;;;15.90;10.57;;;;;;;2.05;52.44;100202.75;5074197;28;20040;-69
2022/12/14 04:22:45;;;;;;;19.00;10.73;;;;;;;2.04;52.43;100197.53;5073500;28;20070;-69
2022/12/14 04:31:12;;;;;;;16.55;10.23;;;;;;;1.99;52.33;100183.66;5092097;28;20480;-70
2022/12/14 04:33:46;;;;;;;16.67;10.60;;;;;;;1.98;52.31;100181.94;5093254;28;20101;-68
2022/12/14 04:36:29;;;;;;;15.68;11.20;;;;;;;1.95;52.34;100184.72;5092431;28;20560;-70
2022/12/14 04:39:01;;;;;;;16.77;9.95;;;;;;;1.95;52.30;100184.72;5093292;28;20105;-68
2022/12/14 04:41:35;;;;;;;14.85;10.43;;;;;;;1.94;52.45;100167.97;5093357;28;20407;-69
2022/12/14 04:44:12;;;;;;;17.85;9.90;;;;;;;1.93;52.42;100166.25;5093828;28;20101;-69
2022/12/14 04:46:40;;;;;;;15.35;10.43;;;;;;;1.94;52.46;100164.47;5093774;28;20184;-69
2022/12/14 04:49:18;;;;;;;16.52;10.07;;;;;;;1.92;52.53;100168.06;5073706;28;20054;-69
2022/12/14 04:52:00;;;;;;;17.25;10.32;;;;;;;1.92;52.53;100162.75;5073217;28;20046;-69
2022/12/14 04:54:41;;;;;;;13.80;9.70;;;;;;;1.91;52.28;100163.69;5073575;28;20051;-69
2022/12/14 04:57:22;;;;;;;14.88;9.43;;;;;;;1.92;52.39;100156.59;5073421;28;20051;-69
2022/12/14 04:59:49;;;;;;;16.83;10.15;;;;;;;1.92;52.30;100159.25;5088088;28;20052;-68
2022/12/14 05:02:34;;;;;;;14.90;10.07;;;;;;;1.91;52.43;100154.88;5092630;28;20516;-68
2022/12/14 05:05:01;;;;;;;15.85;10.27;;;;;;;1.91;52.28;100150.44;5093174;28;20064;-69
2022/12/14 05:07:56;;;;;;;15.13;10.10;;;;;;;1.93;52.41;100147.72;5081344;28;20047;-69
2022/12/14 05:10:43;;;;;;;15.00;9.52;;;;;;;1.94;52.26;100145.94;5081680;28;20047;-69
2022/12/14 05:13:17;;;;;;;12.65;9.25;;;;;;;1.95;52.35;100145.00;5092595;28;20032;-68
2022/12/14 05:15:53;;;;;;;16.58;9.43;;;;;;;1.97;52.36;100135.19;5093536;28;20044;-68
2022/12/14 05:18:20;;;;;;;15.25;9.23;;;;;;;1.99;52.53;100134.19;5092530;28;20043;-69
2022/12/14 05:20:47;;;;;;;16.88;9.93;;;;;;;2.00;52.40;100132.41;5092689;28;20394;-70
2022/12/14 05:23:14;;;;;;;17.05;9.88;;;;;;;1.99;52.23;100131.56;5089175;28;20040;-69
2022/12/14 05:25:41;;;;;;;15.88;8.95;;;;;;;2.00;52.41;100127.97;5092435;28;20036;-69
2022/12/14 05:28:11;;;;;;;14.02;9.13;;;;;;;1.99;52.25;100123.59;5074350;28;20048;-70
2022/12/14 05:30:38;;;;;;;14.32;9.48;;;;;;;1.99;52.39;100125.41;5087732;28;20044;-70
2022/12/14 05:33:05;;;;;;;14.23;9.95;;;;;;;2.01;52.39;100123.53;5091556;28;20037;-69
2022/12/14 05:35:31;;;;;;;14.30;9.20;;;;;;;2.03;52.14;100126.97;5092750;28;20044;-69
2022/12/14 05:37:58;;;;;;;16.10;9.43;;;;;;;2.04;52.18;100123.38;5090565;28;20048;-68
2022/12/14 05:40:25;;;;;;;14.25;9.38;;;;;;;2.06;52.36;100121.53;5080067;28;20487;-69
2022/12/14 05:43:03;;;;;;;15.98;9.32;;;;;;;2.08;52.17;100122.31;5072667;28;20486;-69
2022/12/14 05:45:30;;;;;;;15.35;9.38;;;;;;;2.10;52.34;100126.59;5073227;28;20055;-68
2022/12/14 05:47:56;;;;;;;13.98;9.27;;;;;;;2.12;52.16;100121.22;5090087;28;20044;-68
2022/12/14 05:50:23;;;;;;;13.27;9.27;;;;;;;2.13;52.18;100117.66;5091178;28;20043;-69
2022/12/14 05:52:50;;;;;;;13.40;8.73;;;;;;;2.14;52.37;100111.41;5091930;28;20044;-70
2022/12/14 05:55:17;;;;;;;13.60;8.43;;;;;;;2.13;52.02;100115.84;5092348;28;20036;-68
2022/12/14 05:57:44;;;;;;;18.40;8.98;;;;;;;2.14;52.16;100112.28;5092904;28;20044;-68
2022/12/14 06:00:10;;;;;;;14.63;9.50;;;;;;;2.16;52.09;100115.72;5084851;28;20037;-70
2022/12/14 06:02:37;;;;;;;15.90;9.10;;;;;;;2.16;52.10;100113.06;5084601;28;20044;-69
2022/12/14 06:05:04;;;;;;;15.73;8.68;;;;;;;2.17;52.11;100119.22;5096288;28;20055;-69
2022/12/14 06:07:31;;;;;;;13.50;8.73;;;;;;;2.17;52.22;100117.44;5094795;28;20040;-70
2022/12/14 06:09:57;;;;;;;15.82;8.43;;;;;;;2.18;52.04;100111.19;5095842;28;20064;-69
2022/12/14 06:12:25;;;;;;;16.10;9.38;;;;;;;2.19;52.15;100112.06;5096446;28;20052;-69
2022/12/14 06:14:51;;;;;;;14.02;8.48;;;;;;;2.18;51.97;100113.00;5095884;28;20049;-69
2022/12/14 06:17:18;;;;;;;12.80;8.68;;;;;;;2.17;52.13;100113.91;5096952;28;20036;-70
2022/12/14 06:19:44;;;;;;;14.60;8.57;;;;;;;2.15;51.93;100114.00;5096790;28;20044;-69
2022/12/14 06:22:16;;;;;;;14.93;8.77;;;;;;;2.14;51.99;100101.69;5087344;28;20060;-70
2022/12/14 06:24:42;;;;;;;14.13;8.45;;;;;;;2.15;52.00;100107.84;5076303;28;20033;-69
2022/12/14 06:27:09;;;;;;;14.93;8.95;;;;;;;2.15;52.04;100107.84;5079577;28;20397;-71
2022/12/14 06:29:36;;;;;;;13.35;8.73;;;;;;;2.16;52.07;100105.13;5096071;28;20040;-70
2022/12/14 06:32:02;;;;;;;14.57;8.77;;;;;;;2.18;51.96;100107.69;5096418;28;20040;-67
2022/12/14 06:34:29;;;;;;;15.63;9.32;;;;;;;2.17;51.98;100109.47;5096462;28;20066;-69
2022/12/14 06:37:02;;;;;;;18.55;8.63;;;;;;;2.15;51.85;100107.84;5094962;28;20044;-70
2022/12/14 06:39:28;;;;;;;12.57;8.30;;;;;;;2.14;51.77;100100.81;5096105;28;20440;-69
2022/12/14 06:41:55;;;;;;;13.60;8.27;;;;;;;2.14;51.69;100096.38;5093955;28;20041;-69
2022/12/14 06:44:22;;;;;;;14.20;8.73;;;;;;;2.13;52.00;100101.75;5095767;28;20040;-69
2022/12/14 06:46:48;;;;;;;14.82;8.75;;;;;;;2.12;51.68;100110.63;5095921;28;20070;-69
2022/12/14 06:49:16;;;;;;;12.95;8.10;;;;;;;2.10;51.80;100105.41;5095830;28;20046;-69
2022/12/14 06:51:42;;;;;;;13.38;8.57;;;;;;;2.11;51.86;100120.38;5095655;28;20504;-69
2022/12/14 06:54:11;;;;;;;13.00;8.52;;;;;;;2.10;51.74;100113.34;5094769;28;20032;-69
2022/12/14 06:56:41;;;;;;;16.45;8.88;;;;;;;2.10;51.82;100112.50;5075343;28;20051;-69
2022/12/14 06:59:08;;;;;;;16.35;9.15;;;;;;;2.10;51.83;100115.16;5075603;28;20124;-70
2022/12/14 07:01:36;;;;;;;15.20;8.77;;;;;;;2.07;51.77;100110.84;5074942;28;20048;-70
2022/12/14 07:04:04;;;;;;;13.98;8.38;;;;;;;2.05;51.86;100120.66;5093947;28;20061;-69
2022/12/14 07:06:34;;;;;;;16.20;9.30;;;;;;;2.04;51.96;100113.66;5095507;28;20036;-69
2022/12/14 07:09:02;;;;;;;17.27;9.57;;;;;;;2.04;51.95;100118.09;5081615;28;20056;-70
2022/12/14 07:11:29;;;;;;;16.50;9.32;;;;;;;2.03;51.98;100125.19;5075576;28;20114;-69
2022/12/14 07:13:59;;;;;;;15.32;9.80;;;;;;;2.04;51.87;100129.53;5074543;28;20098;-69
2022/12/14 07:16:28;;;;;;;17.00;9.95;;;;;;;2.05;52.03;100136.56;5075719;28;20106;-70
2022/12/14 07:18:55;;;;;;;15.57;9.25;;;;;;;2.05;51.91;100131.25;5075091;28;20048;-69
2022/12/14 07:21:22;;;;;;;15.48;9.45;;;;;;;2.06;52.10;100137.41;5076774;28;20512;-69
2022/12/14 07:23:51;;;;;;;13.88;9.00;;;;;;;2.06;51.92;100138.28;5094869;28;20047;-70
2022/12/14 07:26:23;;;;;;;13.93;9.57;;;;;;;2.07;52.00;100133.84;5095273;28;20093;-70
2022/12/14 07:28:51;;;;;;;14.05;8.73;;;;;;;2.07;51.90;100128.53;5095322;28;20048;-69
2022/12/14 07:31:20;;;;;;;14.43;9.32;;;;;;;2.07;51.98;100136.47;5082536;28;20045;-69
2022/12/14 07:33:47;;;;;;;18.70;9.13;;;;;;;2.07;52.07;100139.13;5074609;28;20090;-69
2022/12/14 07:36:16;;;;;;;12.55;8.80;;;;;;;2.05;51.96;100125.97;5074955;28;20040;-68
2022/12/14 07:38:45;;;;;;;13.48;8.95;;;;;;;2.03;52.11;100130.47;5074772;28;20045;-70
2022/12/14 07:41:20;;;;;;;14.02;8.77;;;;;;;2.03;51.97;100132.25;5074921;28;20047;-70
2022/12/14 07:43:49;;;;;;;13.20;8.68;;;;;;;2.00;51.70;100127.97;5076707;28;20568;-69
2022/12/14 07:46:18;;;;;;;13.20;8.27;;;;;;;1.96;51.90;100134.34;5074588;28;20036;-68
2022/12/14 07:48:48;;;;;;;18.13;9.57;;;;;;;1.92;51.96;100132.78;5074857;28;20119;-68
2022/12/14 07:51:17;;;;;;;13.75;8.90;;;;;;;1.88;52.02;100128.56;5087790;28;20036;-68
2022/12/14 07:53:44;;;;;;;14.27;8.35;;;;;;;1.84;52.05;100129.63;5094176;28;20093;-69
2022/12/14 07:56:34;;;;;;;13.90;9.25;;;;;;;1.82;52.07;100132.34;5093486;28;20401;-68
2022/12/14 07:59:03;;;;;;;15.95;10.32;;;;;;;1.81;51.92;100146.50;5073980;28;20040;-68
2022/12/14 08:01:33;;;;;;;16.83;9.32;;;;;;;1.79;52.15;100143.06;5074022;28;20513;-68
2022/12/14 08:04:07;;;;;;;14.82;8.88;;;;;;;1.77;52.13;100149.38;5074437;28;20051;-69
2022/12/14 08:06:34;;;;;;;17.83;10.00;;;;;;;1.75;51.88;100148.59;5077051;28;20482;-68
2022/12/14 08:09:01;;;;;;;13.15;8.65;;;;;;;1.73;52.13;100142.50;5096366;28;20066;-67
2022/12/14 08:11:28;;;;;;;13.00;8.07;;;;;;;1.71;51.97;100141.72;5113377;28;20039;-68
2022/12/14 08:13:59;;;;;;;15.23;8.52;;;;;;;1.70;52.14;100150.56;5077614;28;20494;-68
2022/12/14 08:16:27;;;;;;;13.55;9.20;;;;;;;1.68;52.05;100142.72;5073842;28;20040;-69
2022/12/14 08:18:55;;;;;;;13.23;8.65;;;;;;;1.67;52.18;100145.44;5080040;28;20051;-68
2022/12/14 08:21:22;;;;;;;14.57;8.93;;;;;;;1.64;52.12;100154.38;5094002;28;20040;-68
2022/12/14 08:23:51;;;;;;;12.45;8.27;;;;;;;1.63;52.21;100147.34;5093268;28;20040;-68
2022/12/14 08:26:18;;;;;;;17.30;7.85;;;;;;;1.65;52.17;100157.88;5076342;28;20044;-68
2022/12/14 08:28:45;;;;;;;12.85;8.40;;;;;;;1.63;52.15;100159.72;5089176;28;20041;-68
2022/12/14 08:31:15;;;;;;;17.95;8.60;;;;;;;1.63;52.08;100160.59;5073675;28;20047;-68
2022/12/14 08:33:44;;;;;;;11.55;7.80;;;;;;;1.61;52.10;100157.16;5083541;28;20102;-68
2022/12/14 08:36:13;;;;;;;12.82;8.27;;;;;;;1.59;52.16;100159.00;5073594;28;20090;-68
2022/12/14 08:38:40;;;;;;;15.23;8.52;;;;;;;1.58;52.14;100166.09;5073319;28;20041;-68
2022/12/14 08:41:09;;;;;;;17.20;11.05;;;;;;;1.56;51.89;100170.59;5073590;28;20041;-74
2022/12/14 08:43:36;;;;;;;16.38;10.93;;;;;;;1.54;51.98;100166.28;5072228;28;20055;-73
2022/12/14 08:46:04;;;;;;;16.60;8.70;;;;;;;1.52;52.03;100165.50;5089866;28;20048;-73
2022/12/14 08:48:31;;;;;;;14.13;8.40;;;;;;;1.50;51.94;100168.22;5093443;28;20652;-72
2022/12/14 08:51:05;;;;;;;17.67;7.90;;;;;;;1.47;51.86;100154.22;5093846;28;20040;-72
2022/12/14 08:53:32;;;;;;;12.23;7.85;;;;;;;1.48;52.02;100163.88;5093407;28;20044;-73
2022/12/14 08:56:04;;;;;;;14.75;7.95;;;;;;;1.49;52.01;100155.91;5093630;28;20058;-73
2022/12/14 08:58:31;;;;;;;13.93;7.80;;;;;;;1.49;51.97;100157.72;5092275;28;20040;-72
2022/12/14 09:01:05;;;;;;;12.88;8.00;;;;;;;1.48;52.07;100158.59;5093330;28;20038;-73
2022/12/14 09:03:33;;;;;;;20.13;9.05;;;;;;;1.48;52.14;100163.88;5091922;28;20044;-73
2022/12/14 09:06:07;;;;;;;21.27;9.38;;;;;;;1.46;52.02;100171.03;5093564;28;20478;-73
2022/12/14 09:08:34;;;;;;;18.85;8.73;;;;;;;1.44;52.08;100168.47;5093147;28;20036;-72
2022/12/14 09:11:03;;;;;;;24.08;9.23;;;;;;;1.43;52.01;100168.53;5092133;28;20101;-73
2022/12/14 09:13:31;;;;;;;21.88;8.88;;;;;;;1.42;52.08;100167.66;5075559;28;20045;-73
2022/12/14 09:16:07;;;;;;;20.92;9.05;;;;;;;1.43;52.13;100166.75;5073201;28;20041;-73
2022/12/14 09:18:34;;;;;;;15.95;9.25;;;;;;;1.44;52.17;100168.47;5073759;28;20429;-73
2022/12/14 09:21:01;;;;;;;17.13;9.10;;;;;;;1.45;52.15;100171.97;5073082;28;20062;-73
2022/12/14 09:23:30;;;;;;;18.80;9.20;;;;;;;1.45;51.88;100185.19;5072828;28;20040;-73
2022/12/14 09:26:03;;;;;;;14.93;9.38;;;;;;;1.45;51.99;100180.75;5075132;28;20041;-73
2022/12/14 09:28:32;;;;;;;17.77;9.75;;;;;;;1.44;52.04;100181.69;5087225;28;20505;-73
2022/12/14 09:31:04;;;;;;;14.50;9.00;;;;;;;1.45;52.09;100182.56;5091909;28;20505;-73
2022/12/14 09:33:31;;;;;;;16.83;8.82;;;;;;;1.47;52.03;100188.63;5092976;28;20464;-73
2022/12/14 09:36:04;;;;;;;14.02;8.52;;;;;;;1.48;52.19;100190.34;5076869;28;20444;-72
2022/12/14 09:38:33;;;;;;;14.75;9.20;;;;;;;1.50;52.09;100188.53;5095957;28;20040;-73
2022/12/14 09:41:04;;;;;;;15.10;9.13;;;;;;;1.50;52.07;100180.59;5096451;28;20040;-73
2022/12/14 09:43:50;;;;;;;14.85;7.80;;;;;;;1.51;52.26;100182.31;5096908;28;20071;-73
2022/12/14 09:46:54;;;;;;;16.70;8.15;;;;;;;1.53;52.18;100177.81;5097200;28;20532;-73
2022/12/14 09:49:30;;;;;;;14.60;8.85;;;;;;;1.54;52.07;100176.88;5097027;28;20424;-73
2022/12/14 09:52:08;;;;;;;14.52;8.95;;;;;;;1.56;52.24;100175.03;5096970;28;20052;-72
2022/12/14 09:54:37;;;;;;;16.45;9.18;;;;;;;1.59;52.21;100174.88;5096029;28;20032;-73
2022/12/14 09:57:11;;;;;;;18.92;9.15;;;;;;;1.63;52.32;100171.19;5096647;28;20106;-73
2022/12/14 09:59:37;;;;;;;12.30;8.43;;;;;;;1.69;52.32;100172.69;5096708;28;20036;-73
2022/12/14 10:02:16;;;;;;;13.82;8.90;;;;;;;1.73;52.49;100161.03;5096311;28;20044;-73
2022/12/14 10:05:15;;;;;;;14.20;8.48;;;;;;;1.82;52.43;100171.19;5096936;28;20044;-73
2022/12/14 10:08:01;;;;;;;13.63;8.75;;;;;;;1.91;52.49;100161.03;5095376;28;20382;-73
2022/12/14 10:11:05;;;;;;;14.52;8.65;;;;;;;2.04;52.56;100160.47;5094388;28;20067;-73
2022/12/14 10:13:46;;;;;;;12.32;7.70;;;;;;;2.15;52.55;100161.66;5076007;28;20048;-73
2022/12/14 10:16:35;;;;;;;13.80;8.43;;;;;;;2.28;52.64;100159.31;5076223;28;20045;-72
2022/12/14 10:19:33;;;;;;;15.40;9.07;;;;;;;2.43;52.57;100158.59;5074946;28;20045;-72
2022/12/14 10:22:12;;;;;;;14.40;8.57;;;;;;;2.56;52.59;100158.84;5075983;28;20052;-73
2022/12/14 10:24:46;;;;;;;14.07;8.57;;;;;;;2.67;52.48;100164.47;5076472;28;20033;-75
2022/12/14 10:27:21;;;;;;;12.80;8.77;;;;;;;2.78;52.38;100155.97;5076756;28;20032;-73
2022/12/14 10:29:51;;;;;;;;;;;;;;;2.90;52.51;100157.16;5076327;28;20064;-72
2022/12/14 10:32:24;;;;;;;15.75;9.10;;;;;;;3.06;52.48;100152.81;5075464;28;19921;-73
2022/12/14 10:34:51;;;;;;;17.33;9.60;;;;;;;3.17;52.46;100164.59;5075749;28;20213;-73
2022/12/14 10:37:36;;;;;;;14.30;8.90;;;;;;;3.27;52.24;100166.78;5075859;28;20479;-72
2022/12/14 10:40:17;;;;;;;15.90;9.23;;;;;;;3.38;52.32;100161.75;5076558;28;20036;-72
2022/12/14 10:43:25;;;;;;;12.68;8.70;;;;;;;3.52;52.21;100167.19;5079417;28;20056;-74
2022/12/14 10:46:21;;;;;;;17.23;9.23;;;;;;;3.64;52.13;100169.22;5075850;28;20040;-74
2022/12/14 10:49:04;;;;;;;14.57;8.82;;;;;;;3.76;52.09;100171.25;5073486;28;20600;-73
2022/12/14 10:51:37;;;;;;;14.60;8.90;;;;;;;3.88;52.09;100168.84;5074112;28;20053;-73
2022/12/14 10:54:21;;;;;;;14.40;8.90;;;;;;;3.98;51.99;100162.97;5077825;28;20094;-73
2022/12/14 10:56:49;;;;;;;12.90;8.30;;;;;;;4.11;51.76;100163.13;5075502;28;20049;-73
2022/12/14 10:59:25;;;;;;;12.63;7.82;;;;;;;4.19;51.58;100158.25;5073917;28;20044;-73
2022/12/14 11:02:00;;;;;;;13.48;9.23;;;;;;;4.26;51.35;100159.63;5075041;28;20040;-74
2022/12/14 11:04:29;;;;;;;12.48;8.27;;;;;;;4.33;51.27;100158.34;5074050;28;20052;-74
2022/12/14 11:06:58;;;;;;;11.65;8.15;;;;;;;4.39;51.23;100158.00;5075215;28;20037;-73
2022/12/14 11:09:26;;;;;;;16.73;9.30;;;;;;;4.47;51.08;100146.94;5075033;28;20036;-74
2022/12/14 11:12:11;;;;;;;12.90;8.68;;;;;;;4.55;50.99;100152.69;5074542;28;20052;-71
2022/12/14 11:14:51;;;;;;;20.38;8.88;;;;;;;4.63;50.70;100161.09;5075015;28;20500;-70
2022/12/14 11:17:44;;;;;;;12.77;8.23;;;;;;;4.69;50.69;100162.53;5075348;28;20045;-70
2022/12/14 11:20:15;;;;;;;18.05;9.50;;;;;;;4.76;50.66;100167.41;5073104;28;20503;-72
2022/12/14 11:22:45;;;;;;;13.43;8.57;;;;;;;4.83;50.38;100167.91;5074572;28;20052;-71
2022/12/14 11:25:27;;;;;;;12.57;8.60;;;;;;;4.86;50.31;100167.72;5074778;28;20483;-73
2022/12/14 11:27:54;;;;;;;12.90;7.97;;;;;;;4.94;50.21;100162.81;5091951;28;20085;-73
2022/12/14 11:30:20;;;;;;;11.82;8.07;;;;;;;5.03;50.13;100164.94;5094992;28;20097;-73
2022/12/14 11:32:48;;;;;;;12.10;8.60;;;;;;;5.07;50.14;100163.81;5094732;28;20044;-72
2022/12/14 11:35:19;;;;;;;12.45;8.10;;;;;;;5.14;50.00;100168.75;5094764;28;20085;-73
2022/12/14 11:37:49;;;;;;;15.73;8.75;;;;;;;5.22;49.88;100159.41;5093500;28;20071;-72
2022/12/14 11:40:24;;;;;;;13.38;8.10;;;;;;;5.30;49.79;100157.13;5094943;28;20044;-73
2022/12/14 11:42:59;;;;;;;11.30;7.75;;;;;;;5.38;49.53;100154.00;5094594;28;20077;-72
2022/12/14 11:45:25;;;;;;;11.23;8.43;;;;;;;5.43;49.58;100158.09;5094885;28;20492;-73
2022/12/14 11:48:14;;;;;;;11.68;8.10;;;;;;;5.50;49.24;100152.41;5093210;28;20040;-72
2022/12/14 11:50:42;;;;;;;10.95;7.80;;;;;;;5.56;49.05;100150.22;5093897;28;20040;-72
2022/12/14 11:53:10;;;;;;;13.02;8.15;;;;;;;5.65;49.06;100154.13;5094469;28;20375;-73
2022/12/14 11:55:42;;;;;;;11.73;7.75;;;;;;;5.70;48.75;100154.69;5093455;28;20036;-72
2022/12/14 11:58:21;;;;;;;16.05;8.55;;;;;;;5.73;48.70;100157.16;5092785;28;20047;-73
2022/12/14 12:00:57;;;;;;;11.68;8.68;;;;;;;5.77;48.46;100155.16;5093437;28;20040;-74
2022/12/14 12:03:28;;;;;;;9.98;7.57;;;;;;;5.82;48.42;100145.94;5093779;28;20139;-73